createdAt,value
2023-05-19T00:00:25.219Z,1.65
2023-05-19T00:02:53.077Z,1.63
2023-05-19T00:05:21.003Z,1.20
2023-05-19T00:07:48.792Z,1.40
2023-05-19T00:10:16.858Z,1.52
2023-05-19T00:12:44.554Z,1.52
2023-05-19T00:15:12.580Z,1.13
2023-05-19T00:17:42.563Z,1.20
2023-05-19T00:20:12.167Z,1.00
2023-05-19T00:22:40.455Z,0.90
2023-05-19T00:25:08.331Z,1.63
2023-05-19T00:27:35.977Z,1.00
2023-05-19T00:30:03.581Z,1.00
2023-05-19T00:32:31.247Z,1.10
2023-05-19T00:34:58.876Z,1.17
2023-05-19T00:37:27.035Z,1.30
2023-05-19T00:39:54.651Z,1.20
2023-05-19T00:42:22.243Z,0.93
2023-05-19T00:44:49.864Z,0.95
2023-05-19T00:47:17.506Z,1.47
2023-05-19T00:49:45.194Z,1.20
2023-05-19T00:52:12.805Z,1.45
2023-05-19T00:54:40.527Z,1.30
2023-05-19T00:57:08.323Z,1.50
2023-05-19T00:59:36.302Z,1.10
2023-05-19T01:02:03.989Z,1.70
2023-05-19T01:04:35.042Z,1.57
2023-05-19T01:07:03.046Z,1.67
2023-05-19T01:09:32.294Z,2.00
2023-05-19T01:12:00.808Z,1.40
2023-05-19T01:14:29.229Z,2.05
2023-05-19T01:17:10.002Z,1.70
2023-05-19T01:19:56.510Z,1.43
2023-05-19T01:22:44.306Z,1.75
2023-05-19T01:25:13.166Z,2.05
2023-05-19T01:27:55.106Z,1.17
2023-05-19T01:30:29.022Z,1.40
2023-05-19T01:32:58.754Z,1.40
2023-05-19T01:35:26.703Z,1.38
2023-05-19T01:37:55.636Z,1.20
2023-05-19T01:40:23.829Z,1.45
2023-05-19T01:42:53.723Z,1.42
2023-05-19T01:45:22.360Z,1.47
2023-05-19T01:47:52.441Z,1.70
2023-05-19T01:50:20.161Z,1.60
2023-05-19T01:52:47.803Z,1.75
2023-05-19T01:55:15.454Z,1.23
2023-05-19T01:58:01.689Z,1.70
2023-05-19T02:00:35.289Z,1.73
2023-05-19T02:03:10.428Z,1.90
2023-05-19T02:05:47.334Z,1.83
2023-05-19T02:08:23.663Z,1.23
2023-05-19T02:10:53.589Z,1.40
2023-05-19T02:13:21.704Z,1.60
2023-05-19T02:15:49.298Z,1.48
2023-05-19T02:18:18.163Z,2.00
2023-05-19T02:20:45.721Z,1.47
2023-05-19T02:23:14.389Z,2.28
2023-05-19T02:25:42.013Z,1.77
2023-05-19T02:28:09.812Z,1.80
2023-05-19T02:30:37.457Z,1.80
2023-05-19T02:33:06.737Z,1.60
2023-05-19T02:35:34.527Z,1.70
2023-05-19T02:38:02.270Z,1.50
2023-05-19T02:40:30.008Z,1.73
2023-05-19T02:42:57.692Z,1.60
2023-05-19T02:45:28.533Z,1.90
2023-05-19T02:47:57.031Z,2.53
2023-05-19T02:50:24.695Z,1.90
2023-05-19T02:52:53.851Z,1.27
2023-05-19T02:55:21.540Z,1.63
2023-05-19T02:57:49.301Z,1.63
2023-05-19T03:00:17.045Z,1.30
2023-05-19T03:02:44.771Z,1.80
2023-05-19T03:05:14.417Z,2.00
2023-05-19T03:07:42.140Z,1.27
2023-05-19T03:10:09.887Z,1.43
2023-05-19T03:12:37.510Z,1.85
2023-05-19T03:15:05.989Z,1.70
2023-05-19T03:17:34.533Z,2.13
2023-05-19T03:20:02.403Z,1.73
2023-05-19T03:22:30.075Z,1.65
2023-05-19T03:24:58.641Z,1.60
2023-05-19T03:27:27.706Z,1.70
2023-05-19T03:29:55.663Z,1.60
2023-05-19T03:32:23.392Z,2.03
2023-05-19T03:34:51.281Z,1.40
2023-05-19T03:37:18.961Z,1.60
2023-05-19T03:39:46.562Z,2.17
2023-05-19T03:42:14.149Z,1.80
2023-05-19T03:44:41.975Z,1.55
2023-05-19T03:47:09.709Z,1.88
2023-05-19T03:49:37.257Z,2.50
2023-05-19T03:52:04.990Z,1.98
2023-05-19T03:54:32.698Z,2.17
2023-05-19T03:57:00.360Z,1.50
2023-05-19T03:59:28.066Z,1.50
2023-05-19T04:01:57.930Z,1.85
2023-05-19T04:04:25.810Z,2.10
2023-05-19T04:06:53.586Z,1.93
2023-05-19T04:09:21.184Z,1.58
2023-05-19T04:11:48.729Z,2.95
2023-05-19T04:14:16.332Z,1.80
2023-05-19T04:16:44.971Z,1.92
2023-05-19T04:19:12.656Z,2.13
2023-05-19T04:21:40.350Z,2.08
2023-05-19T04:24:08.135Z,1.73
2023-05-19T04:26:36.193Z,2.10
2023-05-19T04:29:05.311Z,1.55
2023-05-19T04:31:34.533Z,1.60
2023-05-19T04:34:02.341Z,2.03
2023-05-19T04:36:30.057Z,1.75
2023-05-19T04:39:02.515Z,1.97
2023-05-19T04:41:30.232Z,2.10
2023-05-19T04:43:57.854Z,2.40
2023-05-19T04:46:26.700Z,1.90
2023-05-19T04:48:55.531Z,2.13
2023-05-19T04:51:23.338Z,2.17
2023-05-19T04:53:51.738Z,1.88
2023-05-19T04:56:19.472Z,3.03
2023-05-19T04:58:47.128Z,2.38
2023-05-19T05:01:15.911Z,2.72
2023-05-19T05:03:43.835Z,2.10
2023-05-19T05:06:11.863Z,2.00
2023-05-19T05:08:41.320Z,2.20
2023-05-19T05:11:09.170Z,2.13
2023-05-19T05:13:37.037Z,2.50
2023-05-19T05:16:06.704Z,2.25
2023-05-19T05:18:34.947Z,2.20
2023-05-19T05:21:03.000Z,2.20
2023-05-19T05:23:30.846Z,2.45
2023-05-19T05:25:59.281Z,2.13
2023-05-19T05:28:27.075Z,2.50
2023-05-19T05:30:56.469Z,1.67
2023-05-19T05:33:25.065Z,2.22
2023-05-19T05:35:52.787Z,1.70
2023-05-19T05:38:20.760Z,1.50
2023-05-19T05:40:48.371Z,2.20
2023-05-19T05:43:15.960Z,2.20
2023-05-19T05:45:43.677Z,1.87
2023-05-19T05:48:11.730Z,1.77
2023-05-19T05:50:39.641Z,1.80
2023-05-19T05:53:07.553Z,1.73
2023-05-19T05:55:35.513Z,1.77
2023-05-19T05:58:03.717Z,2.08
2023-05-19T06:00:31.670Z,2.05
2023-05-19T06:02:59.988Z,2.13
2023-05-19T06:05:27.836Z,1.90
2023-05-19T06:07:55.676Z,2.30
2023-05-19T06:10:23.347Z,1.50
2023-05-19T06:12:54.184Z,1.40
2023-05-19T06:15:22.585Z,1.88
2023-05-19T06:17:50.365Z,1.97
2023-05-19T06:20:18.658Z,1.45
2023-05-19T06:22:46.267Z,1.92
2023-05-19T06:25:14.025Z,1.80
2023-05-19T06:27:41.757Z,2.37
2023-05-19T06:30:09.708Z,1.50
2023-05-19T06:32:37.390Z,2.38
2023-05-19T06:35:06.046Z,2.10
2023-05-19T06:37:33.730Z,2.20
2023-05-19T06:40:01.366Z,1.80
2023-05-19T06:42:29.061Z,1.92
2023-05-19T06:44:56.636Z,1.70
2023-05-19T06:47:24.422Z,1.88
2023-05-19T06:49:55.501Z,2.40
2023-05-19T06:52:23.897Z,2.03
2023-05-19T06:54:51.587Z,1.60
2023-05-19T06:57:19.350Z,2.17
2023-05-19T06:59:47.025Z,1.53
2023-05-19T07:02:14.728Z,1.55
2023-05-19T07:04:43.300Z,1.58
2023-05-19T07:07:10.985Z,1.77
2023-05-19T07:09:38.710Z,1.52
2023-05-19T07:12:06.514Z,1.95
2023-05-19T07:14:34.179Z,1.80
2023-05-19T07:17:01.772Z,1.83
2023-05-19T07:19:29.609Z,1.92
2023-05-19T07:21:57.506Z,1.58
2023-05-19T07:24:25.390Z,2.10
2023-05-19T07:26:53.072Z,1.95
2023-05-19T07:29:20.726Z,2.00
2023-05-19T07:31:48.457Z,1.88
2023-05-19T07:34:16.258Z,1.73
2023-05-19T07:36:43.925Z,1.95
2023-05-19T07:39:12.200Z,1.50
2023-05-19T07:41:39.872Z,1.90
2023-05-19T07:44:08.045Z,1.77
2023-05-19T07:46:37.231Z,1.75
2023-05-19T07:49:05.298Z,1.70
2023-05-19T07:51:32.898Z,1.25
2023-05-19T07:54:00.640Z,1.90
2023-05-19T07:56:28.268Z,1.67
2023-05-19T07:58:56.010Z,1.70
2023-05-19T08:01:23.617Z,1.63
2023-05-19T08:03:54.523Z,1.88
2023-05-19T08:06:22.591Z,1.50
2023-05-19T08:08:50.278Z,1.83
2023-05-19T08:11:18.413Z,2.40
2023-05-19T08:13:48.837Z,1.60
2023-05-19T08:16:16.835Z,1.40
2023-05-19T08:18:44.653Z,1.42
2023-05-19T08:21:13.571Z,1.40
2023-05-19T08:23:41.416Z,1.85
2023-05-19T08:26:09.051Z,1.80
2023-05-19T08:28:36.724Z,1.48
2023-05-19T08:31:04.413Z,1.53
2023-05-19T08:33:32.006Z,1.85
2023-05-19T08:36:00.129Z,1.60
2023-05-19T08:38:27.854Z,1.60
2023-05-19T08:40:55.704Z,1.58
2023-05-19T08:43:23.428Z,1.88
2023-05-19T08:45:51.300Z,2.00
2023-05-19T08:48:20.009Z,1.40
2023-05-19T08:50:53.860Z,1.42
2023-05-19T08:53:33.083Z,1.38
2023-05-19T08:56:35.067Z,1.07
2023-05-19T08:59:02.653Z,1.20
2023-05-19T09:01:32.763Z,1.63
2023-05-19T09:04:00.528Z,1.73
2023-05-19T09:06:28.268Z,1.33
2023-05-19T09:08:56.060Z,1.25
2023-05-19T09:11:23.782Z,1.60
2023-05-19T09:13:51.574Z,1.55
2023-05-19T09:16:19.455Z,1.85
2023-05-19T09:18:56.944Z,1.90
2023-05-19T09:21:33.360Z,1.70
2023-05-19T09:24:07.364Z,1.65
2023-05-19T09:26:38.755Z,1.60
2023-05-19T09:29:19.408Z,1.40
2023-05-19T09:31:50.735Z,1.50
2023-05-19T09:34:18.498Z,1.52
2023-05-19T09:36:49.537Z,1.87
2023-05-19T09:39:17.580Z,1.38
2023-05-19T09:41:45.624Z,1.60
2023-05-19T09:44:15.491Z,1.50
2023-05-19T09:46:49.745Z,1.37
2023-05-19T09:49:35.334Z,1.88
2023-05-19T09:52:03.862Z,1.35
2023-05-19T09:54:32.431Z,2.27
2023-05-19T09:57:00.479Z,1.45
2023-05-19T09:59:31.266Z,1.83
2023-05-19T10:02:00.796Z,1.60
2023-05-19T10:04:29.228Z,1.60
2023-05-19T10:07:01.254Z,1.52
2023-05-19T10:09:29.740Z,1.48
2023-05-19T10:11:58.030Z,1.50
2023-05-19T10:14:26.294Z,1.73
2023-05-19T10:16:54.487Z,1.77
2023-05-19T10:19:24.019Z,1.63
2023-05-19T10:21:52.006Z,1.58
2023-05-19T10:24:19.713Z,1.73
2023-05-19T10:26:58.389Z,1.50
2023-05-19T10:29:53.490Z,1.65
2023-05-19T10:32:22.227Z,1.40
2023-05-19T10:34:53.629Z,1.50
2023-05-19T10:37:27.122Z,1.70
2023-05-19T10:39:55.778Z,1.20
2023-05-19T10:42:27.901Z,1.58
2023-05-19T10:45:09.008Z,1.30
2023-05-19T10:47:36.704Z,1.10
2023-05-19T10:50:06.880Z,1.55
2023-05-19T10:52:37.691Z,1.33
2023-05-19T10:55:05.522Z,1.63
2023-05-19T10:57:33.371Z,1.83
2023-05-19T11:00:11.789Z,1.55
2023-05-19T11:02:42.696Z,1.70
2023-05-19T11:05:10.842Z,1.33
2023-05-19T11:07:38.623Z,1.30
2023-05-19T11:10:07.370Z,1.50
2023-05-19T11:12:42.428Z,1.77
2023-05-19T11:15:13.251Z,1.77
2023-05-19T11:17:44.398Z,1.42
2023-05-19T11:20:22.986Z,2.03
2023-05-19T11:23:08.601Z,1.77
2023-05-19T11:25:42.144Z,1.17
2023-05-19T11:28:12.414Z,1.70
2023-05-19T11:30:40.814Z,2.00
2023-05-19T11:33:08.630Z,1.80
2023-05-19T11:35:37.443Z,1.70
2023-05-19T11:38:05.268Z,1.90
2023-05-19T11:40:33.181Z,2.38
2023-05-19T11:43:01.976Z,2.20
2023-05-19T11:45:33.448Z,2.50
2023-05-19T11:48:03.014Z,2.00
2023-05-19T11:50:31.791Z,2.35
2023-05-19T11:53:00.570Z,2.30
2023-05-19T11:55:28.579Z,2.05
2023-05-19T12:00:30.531Z,2.67
2023-05-19T12:02:58.407Z,2.38
2023-05-19T12:05:26.349Z,2.47
2023-05-19T12:07:54.320Z,2.20
2023-05-19T12:10:28.403Z,2.88
2023-05-19T12:12:56.141Z,2.90
2023-05-19T12:15:23.828Z,2.75
2023-05-19T12:17:58.502Z,1.93
2023-05-19T12:20:26.410Z,2.58
2023-05-19T12:22:54.837Z,2.45
2023-05-19T12:25:22.528Z,2.80
2023-05-19T12:27:50.284Z,2.92
2023-05-19T12:30:18.051Z,3.30
2023-05-19T12:32:45.681Z,2.58
2023-05-19T12:35:13.896Z,2.65
2023-05-19T12:37:44.357Z,2.42
2023-05-19T12:40:13.612Z,3.30
2023-05-19T12:42:44.744Z,2.37
2023-05-19T12:45:12.572Z,3.13
2023-05-19T12:47:40.319Z,3.00
2023-05-19T12:50:08.896Z,2.70
2023-05-19T12:52:43.596Z,2.97
2023-05-19T12:55:12.077Z,2.60
2023-05-19T12:57:40.135Z,2.65
2023-05-19T13:00:08.079Z,3.17
2023-05-19T13:02:36.604Z,3.28
2023-05-19T13:05:05.046Z,2.60
2023-05-19T13:07:32.678Z,2.90
2023-05-19T13:10:00.332Z,3.03
2023-05-19T13:12:28.370Z,3.72
2023-05-19T13:14:55.983Z,3.30
2023-05-19T13:17:23.657Z,3.03
2023-05-19T13:19:51.698Z,3.33
2023-05-19T13:22:19.486Z,3.55
2023-05-19T13:24:47.143Z,3.25
2023-05-19T13:27:14.837Z,2.50
2023-05-19T13:29:42.509Z,3.10
2023-05-19T13:32:10.142Z,2.97
2023-05-19T13:34:37.840Z,2.53
2023-05-19T13:37:06.627Z,2.78
2023-05-19T13:39:35.299Z,2.47
2023-05-19T13:42:02.960Z,2.38
2023-05-19T13:44:30.670Z,2.40
2023-05-19T13:46:58.390Z,2.20
2023-05-19T13:49:26.353Z,2.30
2023-05-19T13:51:57.124Z,2.20
2023-05-19T13:54:24.822Z,2.22
2023-05-19T13:56:52.757Z,2.50
2023-05-19T13:59:23.334Z,2.47
2023-05-19T14:01:51.071Z,2.33
2023-05-19T14:04:19.423Z,2.17
2023-05-19T14:06:47.221Z,1.83
2023-05-19T14:09:14.944Z,2.00
2023-05-19T14:11:42.601Z,1.90
2023-05-19T14:14:11.464Z,2.17
2023-05-19T14:16:39.579Z,2.15
2023-05-19T14:19:07.401Z,1.70
2023-05-19T14:21:35.141Z,1.70
2023-05-19T14:24:02.790Z,1.77
2023-05-19T14:26:30.463Z,2.20
2023-05-19T14:28:58.214Z,2.10
2023-05-19T14:31:25.972Z,1.77
2023-05-19T14:33:54.209Z,1.73
2023-05-19T14:36:21.849Z,1.83
2023-05-19T14:38:49.520Z,1.65
2023-05-19T14:41:17.147Z,1.60
2023-05-19T14:43:45.501Z,2.10
2023-05-19T14:46:14.552Z,1.70
2023-05-19T14:48:42.198Z,1.50
2023-05-19T14:51:12.838Z,1.50
2023-05-19T14:53:40.449Z,1.63
2023-05-19T14:56:08.356Z,1.63
2023-05-19T14:58:36.077Z,1.55
2023-05-19T15:01:03.728Z,1.67
2023-05-19T15:03:31.429Z,1.45
2023-05-19T15:05:59.146Z,1.30
2023-05-19T15:08:26.900Z,1.83
2023-05-19T15:10:55.832Z,1.43
2023-05-19T15:13:23.483Z,1.70
2023-05-19T15:16:08.263Z,1.55
2023-05-19T15:18:42.701Z,1.50
2023-05-19T15:21:10.463Z,1.60
2023-05-19T15:23:38.153Z,1.40
2023-05-19T15:26:05.822Z,1.33
2023-05-19T15:28:34.284Z,1.30
2023-05-19T15:31:01.911Z,1.60
2023-05-19T15:33:29.605Z,1.30
2023-05-19T15:35:57.955Z,1.40
2023-05-19T15:40:53.447Z,1.70
2023-05-19T15:43:21.962Z,1.10
2023-05-19T15:45:52.351Z,1.30
2023-05-19T15:48:20.104Z,1.45
2023-05-19T15:50:47.695Z,1.27
2023-05-19T15:53:15.577Z,1.40
2023-05-19T15:55:43.305Z,1.30
2023-05-19T15:58:11.135Z,1.25
2023-05-19T16:00:38.756Z,1.63
2023-05-19T16:03:06.693Z,1.20
2023-05-19T16:05:34.430Z,1.55
2023-05-19T16:08:07.674Z,1.37
2023-05-19T16:10:36.243Z,1.27
2023-05-19T16:13:03.856Z,1.13
2023-05-19T16:15:34.555Z,1.75
2023-05-19T16:18:02.254Z,1.13
2023-05-19T16:20:30.027Z,1.40
2023-05-19T16:22:57.799Z,0.93
2023-05-19T16:25:25.515Z,1.23
2023-05-19T16:27:53.274Z,1.30
2023-05-19T16:30:22.798Z,1.20
2023-05-19T16:32:50.602Z,1.00
2023-05-19T16:35:18.358Z,1.38
2023-05-19T16:37:46.026Z,1.10
2023-05-19T16:40:13.765Z,1.10
2023-05-19T16:42:41.465Z,1.23
2023-05-19T16:45:09.520Z,1.00
2023-05-19T16:47:38.097Z,1.08
2023-05-19T16:50:06.027Z,1.50
2023-05-19T16:52:33.629Z,0.93
2023-05-19T16:55:01.272Z,1.05
2023-05-19T16:57:29.084Z,0.97
2023-05-19T16:59:56.867Z,1.38
2023-05-19T17:02:24.482Z,1.40
2023-05-19T17:04:52.451Z,1.47
2023-05-19T17:07:20.071Z,1.13
2023-05-19T17:09:48.324Z,1.70
2023-05-19T17:12:16.531Z,1.30
2023-05-19T17:14:44.336Z,1.37
2023-05-19T17:17:11.949Z,1.25
2023-05-19T17:19:39.533Z,1.40
2023-05-19T17:22:07.434Z,1.67
2023-05-19T17:24:34.970Z,1.42
2023-05-19T17:27:04.894Z,1.50
2023-05-19T17:29:32.585Z,1.53
2023-05-19T17:32:00.333Z,1.33
2023-05-19T17:34:28.286Z,1.75
2023-05-19T17:36:55.934Z,1.40
2023-05-19T17:39:23.547Z,1.47
2023-05-19T17:41:51.307Z,1.05
2023-05-19T17:44:18.919Z,1.48
2023-05-19T17:46:46.568Z,1.50
2023-05-19T17:49:15.472Z,1.67
2023-05-19T17:51:43.346Z,1.30
2023-05-19T17:54:11.105Z,1.33
2023-05-19T17:56:40.659Z,1.35
2023-05-19T17:59:08.431Z,1.60
2023-05-19T18:01:36.239Z,1.33
2023-05-19T18:04:04.434Z,1.30
2023-05-19T18:06:32.384Z,2.22
2023-05-19T18:09:00.547Z,1.30
2023-05-19T18:11:28.333Z,1.47
2023-05-19T18:13:56.068Z,1.60
2023-05-19T18:16:23.879Z,2.08
2023-05-19T18:18:51.972Z,1.57
2023-05-19T18:21:19.805Z,1.38
2023-05-19T18:23:48.497Z,1.63
2023-05-19T18:26:16.280Z,1.40
2023-05-19T18:28:43.963Z,1.60
2023-05-19T18:31:17.577Z,1.73
2023-05-19T18:33:46.014Z,1.30
2023-05-19T18:36:15.512Z,1.80
2023-05-19T18:38:43.226Z,2.40
2023-05-19T18:41:10.982Z,1.20
2023-05-19T18:43:39.194Z,1.47
2023-05-19T18:46:06.972Z,1.70
2023-05-19T18:48:34.662Z,1.50
2023-05-19T18:51:03.937Z,1.75
2023-05-19T18:53:34.976Z,1.43
2023-05-19T18:56:04.297Z,1.65
2023-05-19T18:58:32.011Z,1.80
2023-05-19T19:01:00.719Z,1.67
2023-05-19T19:03:28.772Z,1.90
2023-05-19T19:05:56.818Z,2.20
2023-05-19T19:08:24.844Z,1.80
2023-05-19T19:10:59.210Z,2.10
2023-05-19T19:13:26.873Z,2.13
2023-05-19T19:15:54.506Z,2.30
2023-05-19T19:18:22.430Z,2.10
2023-05-19T19:20:50.094Z,2.53
2023-05-19T19:23:17.914Z,2.33
2023-05-19T19:25:46.839Z,2.33
2023-05-19T19:28:14.570Z,2.70
2023-05-19T19:30:42.174Z,2.65
2023-05-19T19:33:09.794Z,2.50
2023-05-19T19:35:37.484Z,2.55
2023-05-19T19:38:05.182Z,2.25
2023-05-19T19:40:33.176Z,2.42
2023-05-19T19:43:00.943Z,2.77
2023-05-19T19:45:28.573Z,2.35
2023-05-19T19:47:56.368Z,2.55
2023-05-19T19:50:24.163Z,2.97
2023-05-19T19:52:51.825Z,2.90
2023-05-19T19:55:19.392Z,2.10
2023-05-19T19:57:49.571Z,2.20
2023-05-19T20:00:17.469Z,2.20
2023-05-19T20:03:02.869Z,2.25
2023-05-19T20:05:32.263Z,2.88
2023-05-19T20:08:01.245Z,2.10
2023-05-19T20:10:29.039Z,2.40
2023-05-19T20:12:58.872Z,2.03
2023-05-19T20:15:26.886Z,2.20
2023-05-19T20:17:54.654Z,2.58
2023-05-19T20:20:22.280Z,2.20
2023-05-19T20:22:49.888Z,2.50
2023-05-19T20:25:17.437Z,2.47
2023-05-19T20:27:45.175Z,2.22
2023-05-19T20:30:12.834Z,2.22
2023-05-19T20:32:40.525Z,2.03
2023-05-19T20:35:08.799Z,2.38
2023-05-19T20:37:36.422Z,2.50
2023-05-19T20:40:06.355Z,2.60
2023-05-19T20:42:34.140Z,2.55
2023-05-19T20:45:02.329Z,2.53
2023-05-19T20:47:30.567Z,2.87
2023-05-19T20:49:59.539Z,2.83
2023-05-19T20:52:27.283Z,2.53
2023-05-19T20:54:54.989Z,2.15
2023-05-19T20:57:22.679Z,2.90
2023-05-19T20:59:50.291Z,3.10
2023-05-19T21:02:18.868Z,2.97
2023-05-19T21:04:46.697Z,2.90
2023-05-19T21:07:14.430Z,2.83
2023-05-19T21:09:42.880Z,2.60
2023-05-19T21:12:10.666Z,3.20
2023-05-19T21:14:38.219Z,2.88
2023-05-19T21:17:07.261Z,3.40
2023-05-19T21:19:35.789Z,2.60
2023-05-19T21:22:03.440Z,3.57
2023-05-19T21:24:31.176Z,2.88
2023-05-19T21:26:59.892Z,2.80
2023-05-19T21:29:27.578Z,2.57
2023-05-19T21:31:56.265Z,2.65
2023-05-19T21:34:23.969Z,2.38
2023-05-19T21:36:51.670Z,2.83
2023-05-19T21:39:19.338Z,2.40
2023-05-19T21:41:46.891Z,2.42
2023-05-19T21:44:14.508Z,2.28
2023-05-19T21:46:42.164Z,2.30
2023-05-19T21:49:09.856Z,2.90
2023-05-19T21:51:37.660Z,2.22
2023-05-19T21:54:06.266Z,2.50
2023-05-19T21:56:33.876Z,2.30
2023-05-19T21:59:01.578Z,2.40
2023-05-19T22:01:29.230Z,2.20
2023-05-19T22:03:56.888Z,2.30
2023-05-19T22:06:24.629Z,2.90
2023-05-19T22:08:52.452Z,2.63
2023-05-19T22:11:20.246Z,2.50
2023-05-19T22:13:47.908Z,2.83
2023-05-19T22:16:15.573Z,2.42
2023-05-19T22:18:43.440Z,2.50
2023-05-19T22:21:11.066Z,2.67
2023-05-19T22:23:38.698Z,2.42
2023-05-19T22:26:07.365Z,2.20
2023-05-19T22:28:35.486Z,2.53
2023-05-19T22:31:03.180Z,1.90
2023-05-19T22:33:31.018Z,2.03
2023-05-19T22:35:58.916Z,2.93
2023-05-19T22:38:26.611Z,2.30
2023-05-19T22:40:54.352Z,2.45
2023-05-19T22:43:21.958Z,2.80
2023-05-19T22:45:49.641Z,2.33
2023-05-19T22:48:17.451Z,2.25
2023-05-19T22:50:45.167Z,2.30
2023-05-19T22:53:12.757Z,2.85
2023-05-19T22:55:40.536Z,2.40
2023-05-19T22:58:08.982Z,2.13
2023-05-19T23:00:36.621Z,2.30
2023-05-19T23:03:04.408Z,2.17
2023-05-19T23:05:32.345Z,2.22
2023-05-19T23:08:00.212Z,2.00
2023-05-19T23:10:27.761Z,2.22
2023-05-19T23:12:55.470Z,3.63
2023-05-19T23:15:23.022Z,2.00
2023-05-19T23:17:50.763Z,2.03
2023-05-19T23:20:21.363Z,2.30
2023-05-19T23:22:48.989Z,2.55
2023-05-19T23:25:16.602Z,2.17
2023-05-19T23:27:46.537Z,2.20
2023-05-19T23:30:14.200Z,2.47
2023-05-19T23:32:41.919Z,2.53
2023-05-19T23:35:10.653Z,2.50
2023-05-19T23:37:38.260Z,2.20
2023-05-19T23:40:06.919Z,2.10
2023-05-19T23:42:34.649Z,2.28
2023-05-19T23:45:02.303Z,2.85
2023-05-19T23:47:29.885Z,2.42
2023-05-19T23:49:57.569Z,2.90
2023-05-19T23:52:25.860Z,2.60
2023-05-19T23:54:53.583Z,2.40
2023-05-19T23:57:21.548Z,3.60
2023-05-19T23:59:51.411Z,2.55
